Time;durP1;ratioP1;P1;durP2;ratioP2;P2;SDS_P1;SDS_P2;PMS_P1;PMS_P2;Temp;Humidity;BMP_temperature;BMP_pressure;BME280_temperature;BME280_humidity;BME280_pressure;Samples;Min_cycle;Max_cycle;Signal;HPM_P1;HPM_P2
2021/12/29 00:00:25;;;;;;;14.25;11.70;;;;;;;7.80;100.00;100266.28;5194137;28;20080;-62
2021/12/29 00:02:58;;;;;;;16.98;10.27;;;;;;;7.82;100.00;100258.78;5195017;28;20132;-62
2021/12/29 00:05:30;;;;;;;15.57;12.73;;;;;;;7.78;100.00;100255.81;5193824;28;20030;-63
2021/12/29 00:08:02;;;;;;;14.90;12.15;;;;;;;7.76;100.00;100267.88;5194721;28;20386;-63
2021/12/29 00:10:32;;;;;;;13.48;12.20;;;;;;;7.78;100.00;100284.56;5193858;28;20026;-62
2021/12/29 00:13:04;;;;;;;12.55;11.15;;;;;;;7.65;100.00;100285.75;5193425;28;20030;-62
2021/12/29 00:15:36;;;;;;;12.95;11.80;;;;;;;7.77;100.00;100315.22;5193225;28;20101;-65
2021/12/29 00:18:06;;;;;;;12.13;11.10;;;;;;;7.77;100.00;100331.34;5194718;28;20021;-62
2021/12/29 00:20:37;;;;;;;22.98;9.95;;;;;;;7.74;100.00;100321.06;5193736;28;20036;-62
2021/12/29 00:23:08;;;;;;;11.95;10.35;;;;;;;7.72;100.00;100323.19;5194175;28;20026;-62
2021/12/29 00:25:38;;;;;;;10.73;9.73;;;;;;;7.76;100.00;100340.47;5193000;28;20075;-62
2021/12/29 00:28:09;;;;;;;11.13;9.70;;;;;;;7.72;100.00;100347.38;5193827;28;20029;-62
2021/12/29 00:30:39;;;;;;;21.30;12.13;;;;;;;7.69;100.00;100340.63;5194828;28;20490;-61
2021/12/29 00:33:11;;;;;;;11.77;10.82;;;;;;;7.74;100.00;100339.91;5194003;28;20025;-63
2021/12/29 00:35:42;;;;;;;26.15;9.38;;;;;;;7.74;100.00;100327.28;5193673;28;20030;-61
2021/12/29 00:38:13;;;;;;;11.95;10.65;;;;;;;7.66;100.00;100329.56;5193835;28;20053;-62
2021/12/29 00:40:43;;;;;;;12.75;11.65;;;;;;;7.64;100.00;100320.94;5193996;28;20480;-60
2021/12/29 00:43:15;;;;;;;11.65;10.60;;;;;;;7.70;100.00;100346.81;5194619;28;20098;-62
2021/12/29 00:45:45;;;;;;;11.63;10.63;;;;;;;7.68;100.00;100360.50;5193077;28;20137;-63
2021/12/29 00:48:17;;;;;;;13.63;12.25;;;;;;;7.67;100.00;100368.81;5192797;28;20022;-61
2021/12/29 00:50:48;;;;;;;12.50;11.48;;;;;;;7.70;100.00;100368.31;5192997;28;20021;-62
2021/12/29 00:53:18;;;;;;;17.33;13.73;;;;;;;7.69;100.00;100361.31;5193010;28;20028;-60
2021/12/29 00:55:49;;;;;;;12.48;11.25;;;;;;;7.64;100.00;100375.50;5192338;28;20087;-62
2021/12/29 00:58:20;;;;;;;10.18;9.48;;;;;;;7.63;100.00;100367.69;5192834;28;20049;-62
2021/12/29 01:00:51;;;;;;;16.35;13.90;;;;;;;7.63;100.00;100360.44;5192530;28;20104;-62
2021/12/29 01:03:22;;;;;;;14.18;13.15;;;;;;;7.70;100.00;100377.19;5192939;28;20021;-60
2021/12/29 01:05:52;;;;;;;11.23;10.23;;;;;;;7.60;100.00;100358.25;5192660;28;20034;-62
2021/12/29 01:08:23;;;;;;;12.70;11.65;;;;;;;7.56;100.00;100378.59;5190843;28;20026;-62
2021/12/29 01:10:53;;;;;;;11.48;10.48;;;;;;;7.60;100.00;100392.38;5191163;28;20091;-62
2021/12/29 01:13:33;;;;;;;15.88;11.65;;;;;;;7.48;100.00;100383.63;5190200;28;20034;-62
2021/12/29 01:18:38;;;;;;;18.80;10.07;;;;;;;7.61;100.00;100410.13;5191830;28;20036;-62
2021/12/29 01:21:09;;;;;;;11.48;10.43;;;;;;;7.52;100.00;100422.34;5190566;28;20030;-61
2021/12/29 01:23:40;;;;;;;11.35;10.30;;;;;;;7.63;100.00;100433.00;5190211;28;20056;-62
2021/12/29 01:26:10;;;;;;;12.32;11.13;;;;;;;7.61;100.00;100435.13;5189161;28;20025;-62
2021/12/29 01:28:41;;;;;;;11.60;10.73;;;;;;;7.64;100.00;100440.00;5187723;28;20026;-62
2021/12/29 01:31:11;;;;;;;16.83;11.65;;;;;;;7.66;100.00;100443.25;5188449;28;20029;-62
2021/12/29 01:33:42;;;;;;;12.18;11.20;;;;;;;7.68;100.00;100448.38;5195047;28;20072;-62
2021/12/29 01:36:12;;;;;;;13.73;11.27;;;;;;;7.69;100.00;100471.50;5195983;28;20049;-62
2021/12/29 01:38:43;;;;;;;13.55;11.40;;;;;;;7.62;100.00;100457.41;5192598;28;20033;-60
2021/12/29 01:41:13;;;;;;;12.50;11.13;;;;;;;7.55;100.00;100462.97;5192499;28;20026;-62
2021/12/29 01:43:44;;;;;;;13.52;11.02;;;;;;;7.52;100.00;100468.81;5192622;28;20060;-62
2021/12/29 01:46:15;;;;;;;11.45;10.45;;;;;;;7.34;100.00;100451.09;5192234;28;20030;-63
2021/12/29 01:48:45;;;;;;;9.50;8.60;;;;;;;7.51;100.00;100487.91;5192881;28;20033;-61
2021/12/29 01:51:18;;;;;;;10.60;9.80;;;;;;;7.58;100.00;100483.97;5191816;28;20127;-61
2021/12/29 01:54:02;;;;;;;10.63;9.10;;;;;;;7.62;100.00;100493.19;5191712;28;20029;-62
2021/12/29 01:56:33;;;;;;;19.83;11.55;;;;;;;7.50;100.00;100470.16;5191973;28;20398;-63
2021/12/29 01:59:03;;;;;;;11.30;10.30;;;;;;;7.60;100.00;100486.41;5194636;28;20017;-62
2021/12/29 02:01:33;;;;;;;13.05;11.55;;;;;;;7.58;100.00;100493.91;5194970;28;20072;-63
2021/12/29 02:04:04;;;;;;;12.10;10.00;;;;;;;7.59;100.00;100490.16;5194443;28;20033;-65
2021/12/29 02:06:35;;;;;;;10.88;9.90;;;;;;;7.59;100.00;100500.91;5193434;28;20124;-62
2021/12/29 02:09:07;;;;;;;11.13;10.20;;;;;;;7.57;100.00;100508.41;5193318;28;20470;-61
2021/12/29 02:11:38;;;;;;;9.35;8.65;;;;;;;7.54;100.00;100496.25;5192495;28;20061;-61
2021/12/29 02:14:10;;;;;;;13.63;10.25;;;;;;;7.60;100.00;100499.84;5192148;28;20057;-61
2021/12/29 02:16:40;;;;;;;11.40;10.30;;;;;;;7.56;100.00;100502.22;5191419;28;20080;-61
2021/12/29 02:19:13;;;;;;;9.40;8.50;;;;;;;7.57;100.00;100511.09;5192214;28;20494;-61
2021/12/29 02:21:53;;;;;;;24.83;10.60;;;;;;;7.55;100.00;100513.19;5191125;28;20026;-61
2021/12/29 02:24:35;;;;;;;11.98;10.13;;;;;;;7.39;100.00;100475.34;5191095;28;20076;-62
2021/12/29 02:27:07;;;;;;;10.85;9.93;;;;;;;7.61;100.00;100507.66;5191719;28;20034;-61
2021/12/29 02:29:41;;;;;;;11.73;10.82;;;;;;;7.56;100.00;100499.53;5191819;28;20022;-60
2021/12/29 02:32:11;;;;;;;10.40;8.63;;;;;;;7.57;100.00;100503.84;5192264;28;20452;-64
2021/12/29 02:34:42;;;;;;;14.52;10.13;;;;;;;7.55;100.00;100516.69;5191900;28;20060;-60
2021/12/29 02:37:19;;;;;;;10.50;9.50;;;;;;;7.51;100.00;100515.56;5191520;28;20037;-61
2021/12/29 02:39:51;;;;;;;15.57;9.48;;;;;;;7.54;100.00;100514.25;5191177;28;20021;-65
2021/12/29 02:42:26;;;;;;;14.38;10.70;;;;;;;7.56;100.00;100528.25;5190651;28;20445;-62
2021/12/29 02:45:01;;;;;;;10.02;9.13;;;;;;;7.53;100.00;100520.69;5190473;28;20028;-62
2021/12/29 02:47:32;;;;;;;9.40;8.52;;;;;;;7.50;100.00;100524.69;5191578;28;20060;-61
2021/12/29 02:50:03;;;;;;;10.68;9.82;;;;;;;7.47;100.00;100519.81;5191545;28;20061;-62
2021/12/29 02:52:34;;;;;;;12.07;8.32;;;;;;;7.50;100.00;100535.44;5191312;28;20025;-62
2021/12/29 02:55:05;;;;;;;9.45;8.55;;;;;;;7.52;100.00;100537.88;5192322;28;20029;-61
2021/12/29 02:57:35;;;;;;;9.02;8.30;;;;;;;7.49;100.00;100527.63;5190505;28;20018;-61
2021/12/29 03:00:10;;;;;;;8.43;7.80;;;;;;;7.55;100.00;100534.69;5191119;28;20087;-61
2021/12/29 03:02:41;;;;;;;7.70;7.18;;;;;;;7.35;100.00;100509.13;5191508;28;20033;-62
2021/12/29 03:05:12;;;;;;;14.95;9.52;;;;;;;7.51;100.00;100536.25;5190284;28;20474;-60
2021/12/29 03:07:42;;;;;;;9.07;8.32;;;;;;;7.45;100.00;100532.69;5188954;28;20021;-61
2021/12/29 03:10:12;;;;;;;10.43;9.40;;;;;;;7.45;100.00;100541.53;5188728;28;20101;-61
2021/12/29 03:12:43;;;;;;;10.88;9.60;;;;;;;7.50;100.00;100550.75;5189381;28;20034;-62
2021/12/29 03:15:13;;;;;;;11.40;10.25;;;;;;;7.51;100.00;100560.44;5189690;28;20033;-61
2021/12/29 03:17:44;;;;;;;12.35;9.20;;;;;;;7.51;100.00;100568.50;5191064;28;20036;-62
2021/12/29 03:20:14;;;;;;;10.60;9.75;;;;;;;7.51;100.00;100576.56;5189292;28;20025;-61
2021/12/29 03:22:45;;;;;;;10.27;9.48;;;;;;;7.48;100.00;100563.63;5189678;28;20053;-61
2021/12/29 03:25:15;;;;;;;9.77;8.98;;;;;;;7.49;100.00;100576.81;5189707;28;20030;-61
2021/12/29 03:27:46;;;;;;;13.80;9.52;;;;;;;7.50;100.00;100585.69;5188870;28;20025;-61
2021/12/29 03:30:16;;;;;;;10.20;9.27;;;;;;;7.52;100.00;100580.84;5188934;28;20026;-62
2021/12/29 03:32:52;;;;;;;8.98;8.00;;;;;;;7.55;100.00;100580.38;5188776;28;20390;-62
2021/12/29 03:35:23;;;;;;;14.35;8.32;;;;;;;7.55;100.00;100581.19;5188293;28;20026;-61
2021/12/29 03:37:53;;;;;;;8.73;7.90;;;;;;;7.37;100.00;100563.44;5190147;28;20041;-61
2021/12/29 03:40:24;;;;;;;10.25;9.20;;;;;;;7.51;100.00;100576.56;5188490;28;20026;-61
2021/12/29 03:42:56;;;;;;;9.82;8.93;;;;;;;7.49;100.00;100587.56;5188055;28;20033;-61
2021/12/29 03:45:27;;;;;;;8.90;8.15;;;;;;;7.48;100.00;100577.88;5188209;28;20033;-61
2021/12/29 03:47:57;;;;;;;8.50;7.70;;;;;;;7.36;100.00;100561.81;5188274;28;20105;-62
2021/12/29 03:50:28;;;;;;;11.05;7.30;;;;;;;7.48;100.00;100588.63;5188094;28;20030;-61
2021/12/29 03:52:58;;;;;;;11.25;8.65;;;;;;;7.47;100.00;100588.84;5204559;28;20398;-61
2021/12/29 03:55:29;;;;;;;9.95;8.77;;;;;;;7.33;100.00;100550.72;5189154;28;20375;-61
2021/12/29 03:58:00;;;;;;;12.30;9.27;;;;;;;7.56;100.00;100592.75;5188015;28;20028;-61
2021/12/29 04:00:30;;;;;;;8.35;7.70;;;;;;;7.56;100.00;100587.38;5187722;28;20029;-63
2021/12/29 04:03:01;;;;;;;7.72;7.18;;;;;;;7.46;100.00;100588.03;5187970;28;20042;-60
2021/12/29 04:05:32;;;;;;;7.85;7.25;;;;;;;7.47;100.00;100584.28;5188003;28;20018;-61
2021/12/29 04:08:03;;;;;;;8.50;7.72;;;;;;;7.33;100.00;100570.34;5187765;28;20030;-61
2021/12/29 04:10:34;;;;;;;14.35;8.02;;;;;;;7.45;100.00;100597.97;5187404;28;20041;-60
2021/12/29 04:13:04;;;;;;;7.80;7.30;;;;;;;7.45;100.00;100597.16;5187355;28;20482;-61
2021/12/29 04:15:36;;;;;;;7.38;6.88;;;;;;;7.45;100.00;100592.59;5188110;28;20022;-62
2021/12/29 04:18:15;;;;;;;16.75;7.60;;;;;;;7.42;100.00;100589.56;5186778;28;20025;-62
2021/12/29 04:20:55;;;;;;;11.48;8.32;;;;;;;7.42;100.00;100605.69;5186753;28;20032;-62
2021/12/29 04:23:31;;;;;;;8.18;7.57;;;;;;;7.41;100.00;100629.06;5186221;28;20177;-61
2021/12/29 04:26:04;;;;;;;9.68;8.88;;;;;;;7.45;100.00;100626.69;5186702;28;20054;-61
2021/12/29 04:28:34;;;;;;;8.68;7.88;;;;;;;7.26;100.00;100596.53;5186232;28;20034;-62
2021/12/29 04:31:07;;;;;;;8.40;7.80;;;;;;;7.45;100.00;100627.53;5186172;28;20025;-62
2021/12/29 04:33:38;;;;;;;9.63;8.88;;;;;;;7.34;100.00;100612.25;5185758;28;20092;-62
2021/12/29 04:36:08;;;;;;;8.95;8.27;;;;;;;7.48;100.00;100614.66;5185520;28;20022;-61
2021/12/29 04:38:39;;;;;;;9.77;8.80;;;;;;;7.46;100.00;100614.91;5185517;28;20117;-62
2021/12/29 04:41:09;;;;;;;10.02;9.15;;;;;;;7.45;100.00;100624.84;5185718;28;20061;-66
2021/12/29 04:43:39;;;;;;;7.72;7.22;;;;;;;7.41;100.00;100628.25;5185369;28;20030;-62
2021/12/29 04:46:14;;;;;;;10.10;9.20;;;;;;;7.40;100.00;100624.72;5186181;28;20022;-62
2021/12/29 04:49:00;;;;;;;10.07;8.98;;;;;;;7.39;100.00;100630.34;5185623;28;20041;-62
2021/12/29 04:51:35;;;;;;;9.00;8.30;;;;;;;7.38;100.00;100634.91;5185566;28;20023;-63
2021/12/29 04:54:07;;;;;;;9.43;8.65;;;;;;;7.38;100.00;100639.47;5185243;28;20030;-62
2021/12/29 04:56:38;;;;;;;7.68;7.20;;;;;;;7.38;100.00;100644.84;5185460;28;20034;-62
2021/12/29 04:59:08;;;;;;;10.93;9.48;;;;;;;7.37;100.00;100643.19;5185472;28;20018;-61
2021/12/29 05:01:39;;;;;;;9.98;9.27;;;;;;;7.38;100.00;100639.47;5185169;28;20393;-62
2021/12/29 05:04:10;;;;;;;10.82;9.82;;;;;;;7.35;100.00;100648.81;5184955;28;20187;-62
2021/12/29 05:09:29;;;;;;;11.07;10.03;;;;;;;7.38;100.00;100655.56;5186426;28;20033;-62
2021/12/29 05:12:01;;;;;;;11.57;9.38;;;;;;;7.37;100.00;100660.13;5184570;28;20029;-62
2021/12/29 05:14:32;;;;;;;11.55;10.65;;;;;;;7.35;100.00;100651.50;5184983;28;20029;-61
2021/12/29 05:17:05;;;;;;;10.88;9.82;;;;;;;7.34;100.00;100657.91;5184639;28;20091;-62
2021/12/29 05:19:36;;;;;;;13.45;10.25;;;;;;;7.37;100.00;100665.50;5184354;28;20568;-62
2021/12/29 05:22:06;;;;;;;10.85;9.95;;;;;;;7.34;100.00;100660.63;5184634;28;20085;-61
2021/12/29 05:24:38;;;;;;;9.85;9.05;;;;;;;7.36;100.00;100661.19;5184369;28;20026;-62
2021/12/29 05:27:09;;;;;;;10.77;10.05;;;;;;;7.31;100.00;100655.72;5184404;28;20026;-62
2021/12/29 05:29:39;;;;;;;11.38;10.52;;;;;;;7.36;100.00;100660.38;5184011;28;20030;-62
2021/12/29 05:32:10;;;;;;;10.60;9.68;;;;;;;7.35;100.00;100661.44;5183792;28;20030;-62
2021/12/29 05:34:40;;;;;;;10.55;9.30;;;;;;;7.28;100.00;100652.69;5184079;28;20383;-62
2021/12/29 05:37:11;;;;;;;12.07;9.18;;;;;;;7.28;100.00;100666.94;5184213;28;20090;-62
2021/12/29 05:39:41;;;;;;;10.10;9.35;;;;;;;7.31;100.00;100682.56;5184139;28;20469;-62
2021/12/29 05:42:11;;;;;;;12.45;11.07;;;;;;;7.28;100.00;100677.69;5184035;28;20024;-62
2021/12/29 05:44:42;;;;;;;9.93;9.23;;;;;;;7.28;100.00;100683.03;5183920;28;20026;-64
2021/12/29 05:47:12;;;;;;;10.63;9.93;;;;;;;7.27;100.00;100684.09;5184173;28;20112;-62
2021/12/29 05:49:43;;;;;;;9.23;8.45;;;;;;;7.20;100.00;100678.06;5200495;28;20018;-62
2021/12/29 05:52:15;;;;;;;10.38;9.68;;;;;;;7.24;100.00;100684.56;5184254;28;20028;-62
2021/12/29 05:54:46;;;;;;;11.07;10.27;;;;;;;7.26;100.00;100674.41;5184051;28;20026;-62
2021/12/29 05:57:16;;;;;;;11.00;10.07;;;;;;;7.28;100.00;100671.50;5184081;28;20060;-62
2021/12/29 05:59:47;;;;;;;13.70;9.43;;;;;;;7.24;100.00;100665.78;5183719;28;20026;-65
2021/12/29 06:02:18;;;;;;;10.93;9.90;;;;;;;7.16;100.00;100646.56;5183833;28;20034;-60
2021/12/29 06:04:48;;;;;;;10.00;9.38;;;;;;;7.27;100.00;100670.66;5183652;28;20116;-60
2021/12/29 06:07:19;;;;;;;11.02;9.05;;;;;;;7.24;100.00;100670.31;5183714;28;20029;-61
2021/12/29 06:09:49;;;;;;;10.35;9.65;;;;;;;7.23;100.00;100671.38;5183674;28;20118;-61
2021/12/29 06:12:20;;;;;;;9.50;8.80;;;;;;;7.19;100.00;100673.75;5183936;28;20026;-61
2021/12/29 06:14:51;;;;;;;11.32;10.43;;;;;;;7.17;100.00;100667.00;5183562;28;20408;-61
2021/12/29 06:17:21;;;;;;;11.10;10.30;;;;;;;7.17;100.00;100681.22;5183779;28;20032;-61
2021/12/29 06:19:52;;;;;;;11.88;10.95;;;;;;;6.86;100.00;100627.97;5183545;28;20030;-60
2021/12/29 06:22:23;;;;;;;9.88;8.90;;;;;;;7.18;100.00;100674.81;5184034;28;20458;-61
2021/12/29 06:24:54;;;;;;;10.27;9.38;;;;;;;7.21;100.00;100692.31;5183095;28;20033;-61
2021/12/29 06:27:25;;;;;;;11.10;10.18;;;;;;;7.18;100.00;100684.72;5183629;28;20401;-62
2021/12/29 06:29:55;;;;;;;10.45;9.55;;;;;;;7.19;100.00;100694.44;5183752;28;20026;-62
2021/12/29 06:32:26;;;;;;;10.80;9.70;;;;;;;7.21;100.00;100703.88;5183656;28;20030;-61
2021/12/29 06:34:56;;;;;;;11.48;10.57;;;;;;;7.19;100.00;100705.16;5183426;28;20446;-61
2021/12/29 06:37:27;;;;;;;10.60;9.90;;;;;;;7.17;100.00;100718.81;5183715;28;20025;-61
2021/12/29 06:39:58;;;;;;;12.23;11.23;;;;;;;7.17;100.00;100721.50;5183344;28;20022;-61
2021/12/29 06:42:28;;;;;;;11.75;10.45;;;;;;;7.17;100.00;100721.50;5183309;28;20033;-61
2021/12/29 06:44:59;;;;;;;10.50;9.65;;;;;;;7.14;100.00;100715.78;5185283;28;20022;-61
2021/12/29 06:47:29;;;;;;;11.93;11.02;;;;;;;7.14;100.00;100726.53;5186987;28;20398;-63
2021/12/29 06:50:00;;;;;;;12.55;11.15;;;;;;;7.12;100.00;100732.16;5186942;28;20034;-61
2021/12/29 06:52:31;;;;;;;10.68;9.88;;;;;;;7.05;100.00;100729.56;5186734;28;20029;-61
2021/12/29 06:55:02;;;;;;;12.85;11.43;;;;;;;7.12;100.00;100732.16;5194986;28;20033;-62
2021/12/29 06:57:32;;;;;;;11.70;10.80;;;;;;;7.10;100.00;100724.31;5206944;28;20112;-62
2021/12/29 07:00:04;;;;;;;10.23;9.55;;;;;;;7.09;100.00;100729.94;5207051;28;20408;-61
2021/12/29 07:02:35;;;;;;;11.43;10.73;;;;;;;7.06;100.00;100716.97;5207270;28;20029;-62
2021/12/29 07:05:06;;;;;;;10.95;10.13;;;;;;;7.05;100.00;100715.34;5206918;28;20029;-60
2021/12/29 07:07:36;;;;;;;12.23;11.32;;;;;;;7.06;100.00;100711.59;5207214;28;20067;-61
2021/12/29 07:10:07;;;;;;;12.50;11.57;;;;;;;7.03;100.00;100704.84;5224127;28;20049;-61
2021/12/29 07:12:38;;;;;;;12.55;11.32;;;;;;;7.01;100.00;100704.25;5207403;28;20508;-62
2021/12/29 07:15:08;;;;;;;10.57;9.77;;;;;;;7.07;100.00;100708.69;5207058;28;20021;-62
2021/12/29 07:17:39;;;;;;;13.00;12.00;;;;;;;7.07;100.00;100715.91;5207314;28;20036;-62
2021/12/29 07:20:10;;;;;;;10.85;9.85;;;;;;;7.03;100.00;100733.53;5207239;28;20033;-61
2021/12/29 07:22:40;;;;;;;11.38;10.38;;;;;;;6.97;100.00;100734.47;5207577;28;20035;-62
2021/12/29 07:25:11;;;;;;;12.52;11.23;;;;;;;6.88;100.00;100733.22;5207129;28;20305;-62
2021/12/29 07:27:41;;;;;;;17.60;9.48;;;;;;;6.78;100.00;100734.63;5207289;28;20549;-62
2021/12/29 07:30:12;;;;;;;10.35;9.65;;;;;;;6.68;100.00;100731.69;5206674;28;20033;-62
2021/12/29 07:32:43;;;;;;;10.50;9.70;;;;;;;6.64;100.00;100735.91;5207296;28;20116;-62
2021/12/29 07:35:14;;;;;;;11.05;10.35;;;;;;;6.57;100.00;100740.56;5206985;28;20036;-61
2021/12/29 07:37:44;;;;;;;11.85;10.07;;;;;;;6.49;100.00;100748.97;5206536;28;20037;-61
2021/12/29 07:40:15;;;;;;;10.38;9.55;;;;;;;6.42;100.00;100759.78;5206710;28;20500;-61
2021/12/29 07:42:46;;;;;;;9.38;8.57;;;;;;;6.36;100.00;100762.56;5207155;28;20499;-62
2021/12/29 07:45:18;;;;;;;8.35;7.78;;;;;;;6.32;100.00;100772.16;5206188;28;20060;-61
2021/12/29 07:47:49;;;;;;;8.77;8.27;;;;;;;6.24;100.00;100767.94;5206470;28;20608;-62
2021/12/29 07:50:20;;;;;;;9.13;8.40;;;;;;;6.18;100.00;100757.28;5206055;28;20061;-62
2021/12/29 07:52:51;;;;;;;9.75;8.98;;;;;;;6.17;100.00;100751.13;5206423;28;20379;-62
2021/12/29 07:55:22;;;;;;;8.07;7.50;;;;;;;6.06;100.00;100738.53;5205323;28;20060;-61
2021/12/29 07:57:52;;;;;;;8.95;8.07;;;;;;;6.09;100.00;100746.06;5206125;28;20037;-62
2021/12/29 08:00:24;;;;;;;11.95;9.00;;;;;;;6.14;100.00;100750.75;5205888;28;20017;-62
2021/12/29 08:02:54;;;;;;;8.98;8.27;;;;;;;6.17;100.00;100752.97;5207105;28;20057;-61
2021/12/29 08:05:25;;;;;;;9.90;8.93;;;;;;;6.16;100.00;100738.75;5204264;28;20119;-68
2021/12/29 08:07:55;;;;;;;10.13;8.18;;;;;;;6.16;100.00;100760.22;5205882;28;20164;-62
2021/12/29 08:10:26;;;;;;;10.93;9.52;;;;;;;6.13;100.00;100760.66;5205751;28;20029;-61
2021/12/29 08:12:56;;;;;;;8.40;7.70;;;;;;;6.19;100.00;100759.75;5205487;28;20056;-61
2021/12/29 08:15:27;;;;;;;9.85;8.27;;;;;;;6.24;100.00;100767.13;5205472;28;20029;-62
2021/12/29 08:17:58;;;;;;;20.30;10.77;;;;;;;6.25;100.00;100755.34;5205756;28;20496;-61
2021/12/29 08:20:31;;;;;;;12.55;10.23;;;;;;;6.26;100.00;100765.84;5206148;28;20025;-61
2021/12/29 08:23:03;;;;;;;7.93;7.53;;;;;;;6.30;100.00;100771.56;5205453;28;20033;-62
2021/12/29 08:25:34;;;;;;;8.68;8.07;;;;;;;6.30;100.00;100774.25;5205144;28;20029;-61
2021/12/29 08:28:05;;;;;;;7.90;7.25;;;;;;;6.15;100.00;100752.38;5205446;28;20083;-62
2021/12/29 08:30:35;;;;;;;8.27;7.50;;;;;;;6.30;100.00;100769.69;5205085;28;20021;-62
2021/12/29 08:33:06;;;;;;;15.73;9.32;;;;;;;6.31;100.00;100776.69;5204978;28;20025;-62
2021/12/29 08:35:36;;;;;;;19.27;7.80;;;;;;;6.33;100.00;100765.75;5206507;28;20511;-62
2021/12/29 08:38:07;;;;;;;8.98;7.90;;;;;;;6.38;100.00;100761.28;5205259;28;20021;-61
2021/12/29 08:40:37;;;;;;;8.07;7.03;;;;;;;6.39;100.00;100752.19;5205058;28;20025;-62
2021/12/29 08:43:08;;;;;;;7.68;7.07;;;;;;;6.36;100.00;100751.84;5205183;28;20397;-62
2021/12/29 08:45:42;;;;;;;8.57;7.93;;;;;;;6.50;100.00;100761.31;5202191;28;20013;-61
2021/12/29 08:48:13;;;;;;;8.85;7.97;;;;;;;6.55;100.00;100766.81;5204483;28;20120;-60
2021/12/29 08:50:44;;;;;;;8.40;7.78;;;;;;;6.58;100.00;100774.41;5204797;28;20459;-61
2021/12/29 08:53:14;;;;;;;9.10;8.23;;;;;;;6.35;100.00;100726.09;5204735;28;20052;-61
2021/12/29 08:55:48;;;;;;;10.05;8.57;;;;;;;6.54;100.00;100749.09;5204591;28;20040;-61
2021/12/29 08:58:18;;;;;;;15.68;7.97;;;;;;;6.71;100.00;100758.06;5204555;28;20041;-60
2021/12/29 09:01:35;;;;;;;7.00;6.40;;;;;;;6.80;100.00;100758.53;5202470;28;20605;-61
2021/12/29 09:04:05;;;;;;;8.32;7.82;;;;;;;6.89;100.00;100751.78;5196911;28;20029;-61
2021/12/29 09:06:36;;;;;;;7.20;6.70;;;;;;;6.89;100.00;100735.69;5203945;28;20035;-62
2021/12/29 09:09:06;;;;;;;13.82;7.40;;;;;;;6.99;100.00;100743.13;5204476;28;20033;-61
2021/12/29 09:11:37;;;;;;;7.85;5.90;;;;;;;7.06;100.00;100738.44;5204148;28;20120;-62
2021/12/29 09:14:07;;;;;;;7.78;7.00;;;;;;;7.11;100.00;100746.63;5205564;28;20091;-68
2021/12/29 09:16:38;;;;;;;12.52;7.68;;;;;;;7.16;100.00;100744.03;5204230;28;20021;-63
2021/12/29 09:19:12;;;;;;;8.95;6.47;;;;;;;7.25;100.00;100737.25;5204441;28;20112;-62
2021/12/29 09:21:48;;;;;;;7.88;7.00;;;;;;;7.30;100.00;100739.22;5204461;28;20032;-62
2021/12/29 09:24:19;;;;;;;18.92;8.55;;;;;;;7.31;100.00;100744.34;5203936;28;20029;-62
2021/12/29 09:26:50;;;;;;;6.43;5.93;;;;;;;7.24;100.00;100726.72;5204255;28;20048;-62
2021/12/29 09:29:20;;;;;;;6.75;6.13;;;;;;;7.37;100.00;100745.28;5203946;28;20033;-63
2021/12/29 09:31:51;;;;;;;14.18;6.85;;;;;;;7.34;100.00;100730.44;5204042;28;20393;-63
2021/12/29 09:34:21;;;;;;;5.75;5.28;;;;;;;7.43;100.00;100722.84;5205006;28;20107;-63
2021/12/29 09:36:52;;;;;;;5.95;5.57;;;;;;;7.48;100.00;100730.19;5203751;28;20068;-63
2021/12/29 09:39:24;;;;;;;6.28;5.75;;;;;;;7.53;100.00;100736.47;5203836;28;20026;-62
2021/12/29 09:41:55;;;;;;;11.55;6.97;;;;;;;7.61;100.00;100732.59;5203738;28;20061;-63
2021/12/29 09:44:25;;;;;;;9.55;6.85;;;;;;;7.67;100.00;100731.63;5203799;28;20519;-63
2021/12/29 09:46:56;;;;;;;9.73;6.28;;;;;;;7.70;100.00;100717.72;5203904;28;20463;-63
2021/12/29 09:49:26;;;;;;;6.93;6.32;;;;;;;7.80;100.00;100717.88;5203788;28;20029;-62
2021/12/29 09:51:57;;;;;;;21.17;5.78;;;;;;;7.85;100.00;100720.66;5203672;28;20036;-62
2021/12/29 09:54:27;;;;;;;9.50;4.45;;;;;;;7.89;100.00;100723.69;5203624;28;20045;-63
2021/12/29 09:57:00;;;;;;;12.27;6.72;;;;;;;7.91;100.00;100714.34;5205045;28;20029;-63
2021/12/29 09:59:30;;;;;;;8.15;7.32;;;;;;;7.89;100.00;100708.38;5203706;28;20025;-60
2021/12/29 10:02:01;;;;;;;6.22;5.70;;;;;;;7.85;100.00;100701.03;5203726;28;20036;-63
2021/12/29 10:04:34;;;;;;;10.70;5.53;;;;;;;7.84;100.00;100697.53;5203504;28;20025;-67
2021/12/29 10:07:17;;;;;;;13.85;7.20;;;;;;;7.84;100.00;100688.66;5203730;28;20035;-62
2021/12/29 10:09:48;;;;;;;5.93;5.40;;;;;;;7.85;100.00;100691.09;5203422;28;20025;-62
2021/12/29 10:12:21;;;;;;;13.65;6.15;;;;;;;7.90;100.00;100688.50;5203528;28;20111;-61
2021/12/29 10:14:55;;;;;;;6.28;5.68;;;;;;;7.93;100.00;100695.28;5203144;28;20056;-61
2021/12/29 10:17:28;;;;;;;11.43;6.18;;;;;;;7.90;100.00;100693.88;5203414;28;20432;-61
2021/12/29 10:20:08;;;;;;;6.53;5.93;;;;;;;8.03;100.00;100714.28;5207158;28;20041;-61
2021/12/29 10:22:41;;;;;;;6.38;5.47;;;;;;;8.05;100.00;100699.53;5207319;28;20033;-62
2021/12/29 10:25:19;;;;;;;8.60;5.38;;;;;;;8.11;100.00;100703.91;5207474;28;20538;-61
2021/12/29 10:27:51;;;;;;;11.23;7.07;;;;;;;8.19;100.00;100707.28;5207330;28;20029;-62
2021/12/29 10:30:28;;;;;;;11.30;5.80;;;;;;;8.21;100.00;100705.16;5207456;28;20055;-61
2021/12/29 10:33:13;;;;;;;6.47;5.82;;;;;;;8.21;100.00;100694.41;5207402;28;20029;-61
2021/12/29 10:35:43;;;;;;;5.78;4.75;;;;;;;8.20;100.00;100687.38;5207304;28;20029;-61
2021/12/29 10:38:18;;;;;;;9.23;5.85;;;;;;;8.19;100.00;100675.00;5207485;28;20041;-62
2021/12/29 10:40:49;;;;;;;14.63;6.07;;;;;;;8.20;100.00;100673.94;5207394;28;20033;-61
2021/12/29 10:43:20;;;;;;;6.68;4.57;;;;;;;8.19;100.00;100688.44;5204495;28;20396;-61
2021/12/29 10:45:52;;;;;;;6.28;5.68;;;;;;;8.11;100.00;100671.66;5207650;28;20026;-61
2021/12/29 10:48:29;;;;;;;9.18;5.38;;;;;;;8.21;100.00;100672.88;5206917;28;20056;-63
2021/12/29 10:51:04;;;;;;;8.85;5.13;;;;;;;8.19;100.00;100675.00;5207077;28;20033;-63
2021/12/29 10:53:39;;;;;;;5.72;5.30;;;;;;;8.21;100.00;100680.94;5206705;28;20041;-63
2021/12/29 10:56:24;;;;;;;6.25;5.50;;;;;;;8.28;100.00;100681.59;5206484;28;20485;-61
2021/12/29 10:58:54;;;;;;;9.65;5.65;;;;;;;8.30;100.00;100680.31;5206552;28;20396;-61
2021/12/29 11:01:25;;;;;;;9.05;5.18;;;;;;;8.35;100.00;100685.00;5207035;28;20238;-62
2021/12/29 11:03:57;;;;;;;6.95;4.85;;;;;;;8.40;100.00;100676.97;5206317;28;20049;-62
2021/12/29 11:06:27;;;;;;;6.15;4.68;;;;;;;8.46;100.00;100684.06;5206356;28;20021;-61
2021/12/29 11:09:00;;;;;;;6.72;5.95;;;;;;;8.52;100.00;100684.97;5206677;28;20030;-62
2021/12/29 11:11:41;;;;;;;14.55;5.68;;;;;;;8.54;100.00;100690.91;5231103;22;20521;-84
2021/12/29 11:14:21;;;;;;;6.50;5.57;;;;;;;8.61;100.00;100668.16;5239140;28;20135;-82
2021/12/29 11:17:03;;;;;;;7.47;5.50;;;;;;;8.62;100.00;100644.75;5236013;28;20384;-83
2021/12/29 11:19:35;;;;;;;8.40;4.90;;;;;;;8.80;100.00;100663.28;5234668;28;20017;-83
2021/12/29 11:22:11;;;;;;;5.53;4.88;;;;;;;8.86;100.00;100672.25;5232303;28;20028;-83
2021/12/29 11:24:44;;;;;;;7.68;5.38;;;;;;;8.84;100.00;100658.22;5236644;28;20028;-83
2021/12/29 11:27:17;;;;;;;5.90;4.85;;;;;;;8.84;100.00;100655.53;5238665;28;20036;-83
2021/12/29 11:29:57;;;;;;;7.20;5.07;;;;;;;8.62;100.00;100623.22;5236001;28;20028;-83
2021/12/29 11:32:36;;;;;;;7.35;4.82;;;;;;;8.52;100.00;100629.25;5238802;28;20036;-83
2021/12/29 11:35:20;;;;;;;4.72;4.32;;;;;;;8.64;100.00;100642.63;5236477;28;20020;-82
2021/12/29 11:37:53;;;;;;;5.85;4.85;;;;;;;8.62;100.00;100647.44;5236762;28;20108;-83
2021/12/29 11:40:28;;;;;;;5.70;5.20;;;;;;;8.69;100.00;100656.13;5237994;28;20016;-83
2021/12/29 11:42:58;;;;;;;7.10;4.85;;;;;;;8.63;100.00;100647.19;5238276;28;20021;-83